createdAt,value
2023-04-10T00:00:32.884Z,9.63
2023-04-10T00:03:03.070Z,9.52
2023-04-10T00:05:30.267Z,8.57
2023-04-10T00:07:59.412Z,9.10
2023-04-10T00:10:28.358Z,9.90
2023-04-10T00:12:56.526Z,9.15
2023-04-10T00:15:23.617Z,9.18
2023-04-10T00:17:50.617Z,9.48
2023-04-10T00:20:17.901Z,9.90
2023-04-10T00:22:44.757Z,9.23
2023-04-10T00:25:11.628Z,9.43
2023-04-10T00:27:38.461Z,9.57
2023-04-10T00:30:06.305Z,9.23
2023-04-10T00:32:33.356Z,9.48
2023-04-10T00:35:00.265Z,9.00
2023-04-10T00:37:27.463Z,8.35
2023-04-10T00:39:54.349Z,8.02
2023-04-10T00:42:21.178Z,9.30
2023-04-10T00:44:48.136Z,9.13
2023-04-10T00:47:15.739Z,8.60
2023-04-10T00:49:42.743Z,8.73
2023-04-10T00:52:09.589Z,8.52
2023-04-10T00:54:36.770Z,8.35
2023-04-10T00:57:04.830Z,8.32
2023-04-10T00:59:31.996Z,8.68
2023-04-10T01:01:59.387Z,9.00
2023-04-10T01:04:28.738Z,8.48
2023-04-10T01:07:45.967Z,7.83
2023-04-10T01:10:29.821Z,8.25
2023-04-10T01:13:23.450Z,7.80
2023-04-10T01:15:57.198Z,9.57
2023-04-10T01:18:34.219Z,8.77
2023-04-10T01:21:01.197Z,8.10
2023-04-10T01:23:50.331Z,8.57
2023-04-10T01:26:17.497Z,8.88
2023-04-10T01:28:46.206Z,8.50
2023-04-10T01:31:17.416Z,9.23
2023-04-10T01:33:50.869Z,9.38
2023-04-10T01:36:26.349Z,9.38
2023-04-10T01:38:53.408Z,9.02
2023-04-10T01:41:20.853Z,9.27
2023-04-10T01:43:49.011Z,9.73
2023-04-10T01:46:16.408Z,8.85
2023-04-10T01:48:45.051Z,9.02
2023-04-10T01:51:12.525Z,9.13
2023-04-10T01:53:39.338Z,9.18
2023-04-10T01:56:07.483Z,8.52
2023-04-10T01:58:41.267Z,8.70
2023-04-10T02:01:13.959Z,9.10
2023-04-10T02:06:48.372Z,8.30
2023-04-10T02:09:29.096Z,8.47
2023-04-10T02:11:59.364Z,7.78
2023-04-10T02:14:29.363Z,8.20
2023-04-10T02:16:56.426Z,8.05
2023-04-10T02:19:23.845Z,7.82
2023-04-10T02:21:51.608Z,8.25
2023-04-10T02:24:19.688Z,7.75
2023-04-10T02:26:50.955Z,7.97
2023-04-10T02:29:17.917Z,7.95
2023-04-10T02:31:45.398Z,8.02
2023-04-10T02:34:12.458Z,8.18
2023-04-10T02:36:39.811Z,7.43
2023-04-10T02:39:11.117Z,7.75
2023-04-10T02:41:46.596Z,7.93
2023-04-10T02:44:14.362Z,7.43
2023-04-10T02:46:42.051Z,7.43
2023-04-10T02:49:09.281Z,7.50
2023-04-10T02:51:36.698Z,7.63
2023-04-10T02:54:04.647Z,7.80
2023-04-10T02:56:36.443Z,7.63
2023-04-10T02:59:03.667Z,7.70
2023-04-10T03:01:32.032Z,7.65
2023-04-10T03:03:59.892Z,7.22
2023-04-10T03:06:34.387Z,6.47
2023-04-10T03:09:01.475Z,6.85
2023-04-10T03:11:28.451Z,7.07
2023-04-10T03:13:55.993Z,6.75
2023-04-10T03:16:23.061Z,7.03
2023-04-10T03:18:50.015Z,6.40
2023-04-10T03:21:17.026Z,6.53
2023-04-10T03:23:43.853Z,6.22
2023-04-10T03:26:11.305Z,5.70
2023-04-10T03:28:39.769Z,5.70
2023-04-10T03:31:09.859Z,5.65
2023-04-10T03:33:37.051Z,5.40
2023-04-10T03:36:04.957Z,5.18
2023-04-10T03:38:33.379Z,5.32
2023-04-10T03:41:00.185Z,4.75
2023-04-10T03:43:31.074Z,5.30
2023-04-10T03:45:58.552Z,5.05
2023-04-10T03:48:28.474Z,5.15
2023-04-10T03:50:55.562Z,5.13
2023-04-10T03:53:23.053Z,5.57
2023-04-10T03:55:54.505Z,5.57
2023-04-10T03:58:22.999Z,5.65
2023-04-10T04:00:51.577Z,4.90
2023-04-10T04:03:36.928Z,5.15
2023-04-10T04:06:15.892Z,4.60
2023-04-10T04:09:03.121Z,5.07
2023-04-10T04:11:51.257Z,4.88
2023-04-10T04:14:36.652Z,4.72
2023-04-10T04:17:22.139Z,5.00
2023-04-10T04:20:14.980Z,4.60
2023-04-10T04:23:00.631Z,4.53
2023-04-10T04:25:42.617Z,4.70
2023-04-10T04:28:09.913Z,4.53
2023-04-10T04:30:39.439Z,4.32
2023-04-10T04:33:12.002Z,4.15
2023-04-10T04:35:57.194Z,4.60
2023-04-10T04:38:36.342Z,4.05
2023-04-10T04:41:23.332Z,4.20
2023-04-10T04:44:04.411Z,4.47
2023-04-10T04:46:49.269Z,4.50
2023-04-10T04:49:28.281Z,4.40
2023-04-10T04:52:25.589Z,4.70
2023-04-10T04:55:18.828Z,4.45
2023-04-10T04:58:04.238Z,4.30
2023-04-10T05:00:31.072Z,4.28
2023-04-10T05:03:06.982Z,4.50
2023-04-10T05:05:41.901Z,4.68
2023-04-10T05:08:17.660Z,4.20
2023-04-10T05:11:07.425Z,3.90
2023-04-10T05:13:52.823Z,3.90
2023-04-10T05:16:42.589Z,5.00
2023-04-10T05:19:12.215Z,3.88
2023-04-10T05:24:44.907Z,3.60
2023-04-10T05:27:34.513Z,3.60
2023-04-10T05:30:24.974Z,3.20
2023-04-10T05:33:27.268Z,3.30
2023-04-10T05:36:20.271Z,3.22
2023-04-10T05:39:01.001Z,3.28
2023-04-10T05:41:37.600Z,3.15
2023-04-10T05:44:26.369Z,3.70
2023-04-10T05:47:01.489Z,3.30
2023-04-10T05:49:49.319Z,3.47
2023-04-10T05:52:22.524Z,3.33
2023-04-10T05:55:10.751Z,3.45
2023-04-10T05:58:06.536Z,3.33
2023-04-10T06:01:06.253Z,3.47
2023-04-10T06:03:46.310Z,3.58
2023-04-10T06:06:14.336Z,3.50
2023-04-10T06:08:41.303Z,3.67
2023-04-10T06:11:08.300Z,3.60
2023-04-10T06:13:36.056Z,3.25
2023-04-10T06:16:03.528Z,3.40
2023-04-10T06:18:31.712Z,3.67
2023-04-10T06:21:00.389Z,3.50
2023-04-10T06:23:28.383Z,3.47
2023-04-10T06:25:55.812Z,3.60
2023-04-10T06:28:22.726Z,3.85
2023-04-10T06:30:54.521Z,3.65
2023-04-10T06:33:29.526Z,3.60
2023-04-10T06:35:57.420Z,3.72
2023-04-10T06:38:24.771Z,3.50
2023-04-10T06:40:51.973Z,3.55
2023-04-10T06:43:18.911Z,3.28
2023-04-10T06:45:46.068Z,3.22
2023-04-10T06:48:13.004Z,3.40
2023-04-10T06:50:39.830Z,3.83
2023-04-10T06:53:06.675Z,3.40
2023-04-10T06:55:33.605Z,3.67
2023-04-10T06:58:00.459Z,3.50
2023-04-10T07:00:27.545Z,3.60
2023-04-10T07:02:54.548Z,3.35
2023-04-10T07:05:22.343Z,3.35
2023-04-10T07:07:50.676Z,3.10
2023-04-10T07:10:17.526Z,3.60
2023-04-10T07:12:44.494Z,3.38
2023-04-10T07:15:12.594Z,3.40
2023-04-10T07:17:39.658Z,3.17
2023-04-10T07:20:07.122Z,3.45
2023-04-10T07:22:34.077Z,3.40
2023-04-10T07:25:01.036Z,3.22
2023-04-10T07:27:28.081Z,3.00
2023-04-10T07:29:55.465Z,3.10
2023-04-10T07:32:23.268Z,3.05
2023-04-10T07:34:50.630Z,3.03
2023-04-10T07:37:18.239Z,3.30
2023-04-10T07:39:45.292Z,3.38
2023-04-10T07:42:12.209Z,3.20
2023-04-10T07:44:39.208Z,3.40
2023-04-10T07:47:06.487Z,3.65
2023-04-10T07:49:33.683Z,3.63
2023-04-10T07:52:00.734Z,3.47
2023-04-10T07:54:27.556Z,3.30
2023-04-10T07:56:54.539Z,3.13
2023-04-10T07:59:21.461Z,2.95
2023-04-10T08:01:48.484Z,3.90
2023-04-10T08:04:15.849Z,3.15
2023-04-10T08:06:42.995Z,2.80
2023-04-10T08:09:09.943Z,2.92
2023-04-10T08:11:38.422Z,2.53
2023-04-10T08:14:07.190Z,2.85
2023-04-10T08:16:35.131Z,2.85
2023-04-10T08:19:02.350Z,2.70
2023-04-10T08:21:29.874Z,2.95
2023-04-10T08:23:58.999Z,2.50
2023-04-10T08:26:26.434Z,2.58
2023-04-10T08:28:55.314Z,2.25
2023-04-10T08:31:23.057Z,2.22
2023-04-10T08:33:50.678Z,2.20
2023-04-10T08:36:20.184Z,2.42
2023-04-10T08:38:47.800Z,2.25
2023-04-10T08:41:16.002Z,2.53
2023-04-10T08:43:43.976Z,2.35
2023-04-10T08:46:11.949Z,2.20
2023-04-10T08:48:42.099Z,2.35
2023-04-10T08:51:15.582Z,2.35
2023-04-10T08:53:47.405Z,1.98
2023-04-10T08:56:15.427Z,1.80
2023-04-10T08:58:42.882Z,1.90
2023-04-10T09:01:10.619Z,2.00
2023-04-10T09:03:38.042Z,1.70
2023-04-10T09:06:05.631Z,1.80
2023-04-10T09:08:32.755Z,1.70
2023-04-10T09:10:59.588Z,1.60
2023-04-10T09:13:43.947Z,1.67
2023-04-10T09:16:11.470Z,1.50
2023-04-10T09:18:41.688Z,1.45
2023-04-10T09:21:10.037Z,1.40
2023-04-10T09:23:37.123Z,1.20
2023-04-10T09:26:26.531Z,1.25
2023-04-10T09:29:03.956Z,1.40
2023-04-10T09:31:35.254Z,1.30
2023-04-10T09:34:18.770Z,1.20
2023-04-10T09:36:54.293Z,1.40
2023-04-10T09:39:21.378Z,1.20
2023-04-10T09:41:52.441Z,1.27
2023-04-10T09:44:28.015Z,1.40
2023-04-10T09:46:55.639Z,1.13
2023-04-10T09:49:22.687Z,1.17
2023-04-10T09:51:49.880Z,1.10
2023-04-10T09:54:16.832Z,1.20
2023-04-10T09:56:45.110Z,1.10
2023-04-10T09:59:11.990Z,1.10
2023-04-10T10:01:38.997Z,1.20
2023-04-10T10:04:06.250Z,1.20
2023-04-10T10:06:33.444Z,1.17
2023-04-10T10:09:04.245Z,1.20
2023-04-10T10:11:35.456Z,1.23
2023-04-10T10:14:12.226Z,1.13
2023-04-10T10:16:50.548Z,1.20
2023-04-10T10:19:38.649Z,1.20
2023-04-10T10:22:05.490Z,1.20
2023-04-10T10:24:32.376Z,1.30
2023-04-10T10:26:59.463Z,1.25
2023-04-10T10:29:26.623Z,1.55
2023-04-10T10:31:53.561Z,1.15
2023-04-10T10:34:20.490Z,1.38
2023-04-10T10:36:47.463Z,1.25
2023-04-10T10:39:44.509Z,1.42
2023-04-10T10:42:27.818Z,1.30
2023-04-10T10:45:18.576Z,1.30
2023-04-10T10:47:50.752Z,1.20
2023-04-10T10:52:53.006Z,1.40
2023-04-10T10:55:22.953Z,1.52
2023-04-10T10:57:52.428Z,1.60
2023-04-10T11:00:20.486Z,1.73
2023-04-10T11:03:09.155Z,1.67
2023-04-10T11:05:52.463Z,1.70
2023-04-10T11:08:33.732Z,1.70
2023-04-10T11:11:08.324Z,2.10
2023-04-10T11:13:36.500Z,2.20
2023-04-10T11:16:04.281Z,2.30
2023-04-10T11:18:51.230Z,2.50
2023-04-10T11:21:23.532Z,2.20
2023-04-10T11:23:50.416Z,2.38
2023-04-10T11:26:39.430Z,2.53
2023-04-10T11:29:12.485Z,2.10
2023-04-10T11:31:39.635Z,2.50
2023-04-10T11:34:08.041Z,2.28
2023-04-10T11:36:36.614Z,2.33
2023-04-10T11:39:13.972Z,2.60
2023-04-10T11:41:42.727Z,2.33
2023-04-10T11:44:13.832Z,2.83
2023-04-10T11:46:42.090Z,3.03
2023-04-10T11:49:12.213Z,2.60
2023-04-10T11:51:39.786Z,2.53
2023-04-10T11:54:10.386Z,2.40
2023-04-10T11:56:38.576Z,2.78
2023-04-10T11:59:10.939Z,2.72
2023-04-10T12:01:39.955Z,2.72
2023-04-10T12:04:18.767Z,3.00
2023-04-10T12:06:53.103Z,2.70
2023-04-10T12:09:20.943Z,3.35
2023-04-10T12:11:55.237Z,2.88
2023-04-10T12:14:22.916Z,2.90
2023-04-10T12:16:50.615Z,2.90
2023-04-10T12:19:18.182Z,2.55
2023-04-10T12:21:45.740Z,3.10
2023-04-10T12:24:12.805Z,3.00
2023-04-10T12:26:46.695Z,2.92
2023-04-10T12:29:13.597Z,3.20
2023-04-10T12:31:40.877Z,2.90
2023-04-10T12:34:09.855Z,3.25
2023-04-10T12:36:37.679Z,2.78
2023-04-10T12:39:04.952Z,3.60
2023-04-10T12:41:33.682Z,2.72
2023-04-10T12:44:08.890Z,3.58
2023-04-10T12:46:36.744Z,2.97
2023-04-10T12:49:14.646Z,2.90
2023-04-10T12:51:51.278Z,3.58
2023-04-10T12:54:47.686Z,3.22
2023-04-10T12:57:28.258Z,2.80
2023-04-10T12:59:55.702Z,2.85
2023-04-10T13:02:23.644Z,3.10
2023-04-10T13:04:51.287Z,3.22
2023-04-10T13:07:18.192Z,3.38
2023-04-10T13:09:45.197Z,3.30
2023-04-10T13:12:12.758Z,3.20
2023-04-10T13:14:39.688Z,3.70
2023-04-10T13:17:06.696Z,3.08
2023-04-10T13:19:33.501Z,4.20
2023-04-10T13:22:01.420Z,2.95
2023-04-10T13:24:28.637Z,3.35
2023-04-10T13:26:57.162Z,2.92
2023-04-10T13:29:24.420Z,2.65
2023-04-10T13:31:51.267Z,2.28
2023-04-10T13:34:18.506Z,1.80
2023-04-10T13:36:45.550Z,1.50
2023-04-10T13:39:12.411Z,1.45
2023-04-10T13:41:39.435Z,1.42
2023-04-10T13:44:06.516Z,1.58
2023-04-10T13:46:33.360Z,1.40
2023-04-10T13:49:00.768Z,1.70
2023-04-10T13:51:27.953Z,1.73
2023-04-10T13:53:54.777Z,1.40
2023-04-10T13:56:21.600Z,1.65
2023-04-10T13:58:49.269Z,1.45
2023-04-10T14:01:16.089Z,1.40
2023-04-10T14:03:43.078Z,1.27
2023-04-10T14:06:10.012Z,1.80
2023-04-10T14:08:36.992Z,1.42
2023-04-10T14:11:03.852Z,1.65
2023-04-10T14:13:30.955Z,1.60
2023-04-10T14:15:57.834Z,1.80
2023-04-10T14:18:24.875Z,1.88
2023-04-10T14:20:51.979Z,1.80
2023-04-10T14:23:18.817Z,1.77
2023-04-10T14:25:46.125Z,2.08
2023-04-10T14:28:18.919Z,1.85
2023-04-10T14:30:46.219Z,2.42
2023-04-10T14:33:13.173Z,1.90
2023-04-10T14:35:39.996Z,2.17
2023-04-10T14:38:06.881Z,2.45
2023-04-10T14:40:33.913Z,2.03
2023-04-10T14:43:01.095Z,1.88
2023-04-10T14:45:27.946Z,2.45
2023-04-10T14:47:54.957Z,2.63
2023-04-10T14:50:21.865Z,2.20
2023-04-10T14:52:49.550Z,2.35
2023-04-10T14:55:16.448Z,2.92
2023-04-10T14:57:43.203Z,2.88
2023-04-10T15:00:10.741Z,2.75
2023-04-10T15:02:38.450Z,2.63
2023-04-10T15:05:05.648Z,2.97
2023-04-10T15:07:32.483Z,2.60
2023-04-10T15:09:59.355Z,2.40
2023-04-10T15:12:27.314Z,2.45
2023-04-10T15:14:54.246Z,2.58
2023-04-10T15:17:24.050Z,1.92
2023-04-10T15:19:51.176Z,2.10
2023-04-10T15:22:17.938Z,1.92
2023-04-10T15:24:50.597Z,1.80
2023-04-10T15:27:20.315Z,1.95
2023-04-10T15:29:47.169Z,1.90
2023-04-10T15:32:14.066Z,1.70
2023-04-10T15:34:41.429Z,1.75
2023-04-10T15:37:08.310Z,1.90
2023-04-10T15:39:37.022Z,1.70
2023-04-10T15:42:08.338Z,1.85
2023-04-10T15:44:35.435Z,2.10
2023-04-10T15:47:02.464Z,1.80
2023-04-10T15:49:37.770Z,1.67
2023-04-10T15:52:06.438Z,2.13
2023-04-10T15:54:33.867Z,1.77
2023-04-10T15:57:01.862Z,1.98
2023-04-10T15:59:28.805Z,1.98
2023-04-10T16:01:55.883Z,2.38
2023-04-10T16:04:23.239Z,1.90
2023-04-10T16:06:50.545Z,2.25
2023-04-10T16:09:25.643Z,2.05
2023-04-10T16:11:54.426Z,2.00
2023-04-10T16:14:22.408Z,1.80
2023-04-10T16:16:49.605Z,2.00
2023-04-10T16:19:16.453Z,2.20
2023-04-10T16:21:43.514Z,2.10
2023-04-10T16:24:10.501Z,1.70
2023-04-10T16:26:37.349Z,1.88
2023-04-10T16:29:04.204Z,1.60
2023-04-10T16:31:31.226Z,1.80
2023-04-10T16:33:58.252Z,2.15
2023-04-10T16:36:25.226Z,1.70
2023-04-10T16:38:52.080Z,1.80
2023-04-10T16:41:20.776Z,1.90
2023-04-10T16:43:48.038Z,1.30
2023-04-10T16:46:15.099Z,1.73
2023-04-10T16:48:42.028Z,1.55
2023-04-10T16:51:14.731Z,1.58
2023-04-10T16:53:41.729Z,1.55
2023-04-10T16:56:20.224Z,1.50
2023-04-10T16:58:47.157Z,1.75
2023-04-10T17:01:21.971Z,1.55
2023-04-10T17:03:49.150Z,1.70
2023-04-10T17:06:16.386Z,1.90
2023-04-10T17:08:43.797Z,2.00
2023-04-10T17:11:12.733Z,1.92
2023-04-10T17:13:40.743Z,2.15
2023-04-10T17:16:08.312Z,3.17
2023-04-10T17:18:35.279Z,2.60
2023-04-10T17:21:02.196Z,2.38
2023-04-10T17:23:29.635Z,2.38
2023-04-10T17:25:56.649Z,2.50
2023-04-10T17:28:23.642Z,2.90
2023-04-10T17:30:50.511Z,2.70
2023-04-10T17:33:17.508Z,2.78
2023-04-10T17:35:44.397Z,2.55
2023-04-10T17:38:11.186Z,2.33
2023-04-10T17:40:40.986Z,2.83
2023-04-10T17:43:08.302Z,2.78
2023-04-10T17:45:38.966Z,2.45
2023-04-10T17:48:06.354Z,2.30
2023-04-10T17:50:33.442Z,2.08
2023-04-10T17:53:00.922Z,2.00
2023-04-10T17:55:28.000Z,1.92
2023-04-10T17:57:57.016Z,1.73
2023-04-10T18:00:24.205Z,2.15
2023-04-10T18:02:52.998Z,2.13
2023-04-10T18:05:19.927Z,1.95
2023-04-10T18:07:47.315Z,1.90
2023-04-10T18:10:14.589Z,2.17
2023-04-10T18:12:41.376Z,2.80
2023-04-10T18:15:09.409Z,2.05
2023-04-10T18:17:39.174Z,2.45
2023-04-10T18:20:07.224Z,2.42
2023-04-10T18:22:34.134Z,3.08
2023-04-10T18:25:01.153Z,2.85
2023-04-10T18:27:31.814Z,2.70
2023-04-10T18:29:58.695Z,2.40
2023-04-10T18:32:25.549Z,2.75
2023-04-10T18:34:52.468Z,2.42
2023-04-10T18:37:19.236Z,2.75
2023-04-10T18:39:46.102Z,1.98
2023-04-10T18:42:12.943Z,2.08
2023-04-10T18:44:39.788Z,1.90
2023-04-10T18:47:06.797Z,1.65
2023-04-10T18:49:33.925Z,2.75
2023-04-10T18:52:01.010Z,1.98
2023-04-10T18:54:28.836Z,2.30
2023-04-10T18:56:56.718Z,1.95
2023-04-10T18:59:23.719Z,2.17
2023-04-10T19:01:50.748Z,1.90
2023-04-10T19:04:17.851Z,1.83
2023-04-10T19:06:46.256Z,1.90
2023-04-10T19:09:13.551Z,1.60
2023-04-10T19:11:40.532Z,2.08
2023-04-10T19:14:07.357Z,1.75
2023-04-10T19:16:34.322Z,1.80
2023-04-10T19:19:03.987Z,2.35
2023-04-10T19:21:31.684Z,2.00
2023-04-10T19:23:58.783Z,1.90
2023-04-10T19:26:25.764Z,1.92
2023-04-10T19:28:52.909Z,1.95
2023-04-10T19:31:20.849Z,1.70
2023-04-10T19:33:47.790Z,1.95
2023-04-10T19:36:15.740Z,2.00
2023-04-10T19:38:44.532Z,1.80
2023-04-10T19:41:18.073Z,2.05
2023-04-10T19:43:45.022Z,1.80
2023-04-10T19:46:18.759Z,1.63
2023-04-10T19:48:46.142Z,1.73
2023-04-10T19:51:13.485Z,2.20
2023-04-10T19:53:41.002Z,1.80
2023-04-10T19:56:08.147Z,1.77
2023-04-10T19:58:40.455Z,1.63
2023-04-10T20:01:08.956Z,1.70
2023-04-10T20:03:36.853Z,1.90
2023-04-10T20:06:04.677Z,1.63
2023-04-10T20:08:31.550Z,1.90
2023-04-10T20:10:58.578Z,1.70
2023-04-10T20:13:25.592Z,1.65
2023-04-10T20:15:52.629Z,1.65
2023-04-10T20:18:19.627Z,1.60
2023-04-10T20:20:46.520Z,1.40
2023-04-10T20:23:13.536Z,1.90
2023-04-10T20:25:40.469Z,1.90
2023-04-10T20:28:07.412Z,1.65
2023-04-10T20:30:38.052Z,1.70
2023-04-10T20:33:05.427Z,1.63
2023-04-10T20:35:32.360Z,1.70
2023-04-10T20:37:59.218Z,1.67
2023-04-10T20:40:26.642Z,1.73
2023-04-10T20:42:54.165Z,1.98
2023-04-10T20:45:21.005Z,1.83
2023-04-10T20:47:47.996Z,1.67
2023-04-10T20:50:14.944Z,1.90
2023-04-10T20:52:41.836Z,2.10
2023-04-10T20:55:09.014Z,1.88
2023-04-10T20:57:36.042Z,1.60
2023-04-10T21:00:02.960Z,1.63
2023-04-10T21:02:30.167Z,1.85
2023-04-10T21:04:57.227Z,1.23
2023-04-10T21:07:24.083Z,1.30
2023-04-10T21:09:50.877Z,1.20
2023-04-10T21:12:17.684Z,1.20
2023-04-10T21:14:44.740Z,1.20
2023-04-10T21:17:11.617Z,1.17
2023-04-10T21:19:38.465Z,1.20
2023-04-10T21:22:05.507Z,1.33
2023-04-10T21:24:32.661Z,1.40
2023-04-10T21:26:59.516Z,1.30
2023-04-10T21:29:26.401Z,1.25
2023-04-10T21:31:53.385Z,1.70
2023-04-10T21:34:20.296Z,1.40
2023-04-10T21:36:47.246Z,1.60
2023-04-10T21:39:14.072Z,1.65
2023-04-10T21:41:40.913Z,2.00
2023-04-10T21:44:07.822Z,1.80
2023-04-10T21:46:34.771Z,1.67
2023-04-10T21:49:01.630Z,1.85
2023-04-10T21:51:28.695Z,1.70
2023-04-10T21:53:55.596Z,1.55
2023-04-10T21:56:22.500Z,1.80
2023-04-10T21:58:49.322Z,2.33
2023-04-10T22:01:16.201Z,1.77
2023-04-10T22:03:43.200Z,1.92
2023-04-10T22:06:10.551Z,1.50
2023-04-10T22:08:41.282Z,1.83
2023-04-10T22:11:08.547Z,1.80
2023-04-10T22:13:35.388Z,1.67
2023-04-10T22:16:02.614Z,1.70
2023-04-10T22:18:29.687Z,2.08
2023-04-10T22:20:56.673Z,1.65
2023-04-10T22:23:23.921Z,2.20
2023-04-10T22:25:50.910Z,2.00
2023-04-10T22:28:17.757Z,1.73
2023-04-10T22:30:44.659Z,2.75
2023-04-10T22:33:12.132Z,1.80
2023-04-10T22:35:38.972Z,1.73
2023-04-10T22:38:05.904Z,1.92
2023-04-10T22:40:32.852Z,1.67
2023-04-10T22:42:59.791Z,2.13
2023-04-10T22:45:26.728Z,1.98
2023-04-10T22:47:53.717Z,1.98
2023-04-10T22:50:21.201Z,2.03
2023-04-10T22:52:48.156Z,1.80
2023-04-10T22:55:14.947Z,2.25
2023-04-10T22:57:41.927Z,2.15
2023-04-10T23:00:09.345Z,2.13
2023-04-10T23:02:36.526Z,1.60
2023-04-10T23:05:03.639Z,1.95
2023-04-10T23:07:30.593Z,2.33
2023-04-10T23:09:59.909Z,2.30
2023-04-10T23:12:27.026Z,2.50
2023-04-10T23:14:53.868Z,2.17
2023-04-10T23:17:21.218Z,1.80
2023-04-10T23:19:48.180Z,2.15
2023-04-10T23:22:15.032Z,1.85
2023-04-10T23:24:41.864Z,2.10
2023-04-10T23:27:08.952Z,2.05
2023-04-10T23:29:35.941Z,2.08
2023-04-10T23:32:02.878Z,2.20
2023-04-10T23:34:29.811Z,1.90
2023-04-10T23:36:56.951Z,1.80
2023-04-10T23:39:23.882Z,1.90
2023-04-10T23:41:50.860Z,1.67
2023-04-10T23:44:17.850Z,2.15
2023-04-10T23:46:45.026Z,2.05
2023-04-10T23:49:11.921Z,1.98
2023-04-10T23:51:38.797Z,1.80
2023-04-10T23:54:06.416Z,1.92
2023-04-10T23:56:33.455Z,1.70
2023-04-10T23:59:00.338Z,1.90
